sensor_id;sensor_type;location;lat;lon;timestamp;P1;durP1;ratioP1;P2;durP2;ratioP2
60038;SDS011;45916;52.734;6.544;2023-02-08T00:01:13;44.28;;;34.35;;
60038;SDS011;45916;52.734;6.544;2023-02-08T00:03:41;44.78;;;35.88;;
60038;SDS011;45916;52.734;6.544;2023-02-08T00:06:07;45.95;;;36.95;;
60038;SDS011;45916;52.734;6.544;2023-02-08T00:08:34;44.60;;;36.13;;
60038;SDS011;45916;52.734;6.544;2023-02-08T00:11:01;39.40;;;32.03;;
60038;SDS011;45916;52.734;6.544;2023-02-08T00:13:27;38.42;;;31.15;;
60038;SDS011;45916;52.734;6.544;2023-02-08T00:15:53;41.17;;;33.45;;
60038;SDS011;45916;52.734;6.544;2023-02-08T00:18:19;46.42;;;35.45;;
60038;SDS011;45916;52.734;6.544;2023-02-08T00:20:46;36.90;;;32.13;;
60038;SDS011;45916;52.734;6.544;2023-02-08T00:23:12;45.17;;;34.55;;
60038;SDS011;45916;52.734;6.544;2023-02-08T00:25:39;38.78;;;33.08;;
60038;SDS011;45916;52.734;6.544;2023-02-08T00:28:06;40.70;;;33.47;;
60038;SDS011;45916;52.734;6.544;2023-02-08T00:30:33;41.17;;;33.03;;
60038;SDS011;45916;52.734;6.544;2023-02-08T00:33:00;45.92;;;35.17;;
60038;SDS011;45916;52.734;6.544;2023-02-08T00:35:26;47.13;;;39.50;;
60038;SDS011;45916;52.734;6.544;2023-02-08T00:37:52;53.58;;;41.28;;
60038;SDS011;45916;52.734;6.544;2023-02-08T00:40:18;48.28;;;38.45;;
60038;SDS011;45916;52.734;6.544;2023-02-08T00:42:44;45.88;;;37.28;;
60038;SDS011;45916;52.734;6.544;2023-02-08T00:45:10;49.60;;;36.88;;
60038;SDS011;45916;52.734;6.544;2023-02-08T00:47:35;44.45;;;36.42;;
60038;SDS011;45916;52.734;6.544;2023-02-08T00:50:02;47.80;;;38.55;;
60038;SDS011;45916;52.734;6.544;2023-02-08T00:52:28;46.08;;;37.20;;
60038;SDS011;45916;52.734;6.544;2023-02-08T00:54:54;41.72;;;32.67;;
60038;SDS011;45916;52.734;6.544;2023-02-08T00:57:20;37.47;;;31.92;;
60038;SDS011;45916;52.734;6.544;2023-02-08T00:59:45;35.25;;;29.00;;
60038;SDS011;45916;52.734;6.544;2023-02-08T01:02:11;38.50;;;31.80;;
60038;SDS011;45916;52.734;6.544;2023-02-08T01:04:37;49.47;;;35.97;;
60038;SDS011;45916;52.734;6.544;2023-02-08T01:07:03;45.50;;;35.13;;
60038;SDS011;45916;52.734;6.544;2023-02-08T01:09:29;43.15;;;33.45;;
60038;SDS011;45916;52.734;6.544;2023-02-08T01:11:56;41.95;;;33.33;;
60038;SDS011;45916;52.734;6.544;2023-02-08T01:14:21;36.40;;;30.40;;
60038;SDS011;45916;52.734;6.544;2023-02-08T01:16:47;40.28;;;31.63;;
60038;SDS011;45916;52.734;6.544;2023-02-08T01:19:13;48.60;;;35.78;;
60038;SDS011;45916;52.734;6.544;2023-02-08T01:21:39;47.15;;;37.45;;
60038;SDS011;45916;52.734;6.544;2023-02-08T01:24:07;49.78;;;38.72;;
60038;SDS011;45916;52.734;6.544;2023-02-08T01:26:33;43.22;;;36.08;;
60038;SDS011;45916;52.734;6.544;2023-02-08T01:29:01;45.72;;;36.70;;
60038;SDS011;45916;52.734;6.544;2023-02-08T01:31:28;44.60;;;37.00;;
60038;SDS011;45916;52.734;6.544;2023-02-08T01:36:22;45.00;;;35.13;;
60038;SDS011;45916;52.734;6.544;2023-02-08T01:38:48;46.53;;;35.20;;
60038;SDS011;45916;52.734;6.544;2023-02-08T01:41:17;43.88;;;35.25;;
60038;SDS011;45916;52.734;6.544;2023-02-08T01:46:36;36.75;;;30.70;;
60038;SDS011;45916;52.734;6.544;2023-02-08T01:51:54;41.53;;;34.63;;
60038;SDS011;45916;52.734;6.544;2023-02-08T01:54:24;46.10;;;35.80;;
60038;SDS011;45916;52.734;6.544;2023-02-08T01:56:55;40.72;;;34.78;;
60038;SDS011;45916;52.734;6.544;2023-02-08T01:59:25;45.63;;;35.53;;
60038;SDS011;45916;52.734;6.544;2023-02-08T02:01:55;43.20;;;36.30;;
60038;SDS011;45916;52.734;6.544;2023-02-08T02:04:23;47.25;;;37.05;;
60038;SDS011;45916;52.734;6.544;2023-02-08T02:06:52;42.63;;;36.53;;
60038;SDS011;45916;52.734;6.544;2023-02-08T02:09:22;48.00;;;38.13;;
60038;SDS011;45916;52.734;6.544;2023-02-08T02:11:52;49.13;;;38.55;;
60038;SDS011;45916;52.734;6.544;2023-02-08T02:14:19;48.45;;;37.97;;
60038;SDS011;45916;52.734;6.544;2023-02-08T02:16:46;49.03;;;39.67;;
60038;SDS011;45916;52.734;6.544;2023-02-08T02:19:14;50.25;;;40.30;;
60038;SDS011;45916;52.734;6.544;2023-02-08T02:22:15;47.28;;;38.65;;
60038;SDS011;45916;52.734;6.544;2023-02-08T02:27:41;48.63;;;39.80;;
60038;SDS011;45916;52.734;6.544;2023-02-08T02:33:22;51.20;;;39.75;;
60038;SDS011;45916;52.734;6.544;2023-02-08T02:36:18;44.05;;;36.42;;
60038;SDS011;45916;52.734;6.544;2023-02-08T02:41:25;45.65;;;36.15;;
60038;SDS011;45916;52.734;6.544;2023-02-08T02:50:22;42.13;;;34.67;;
60038;SDS011;45916;52.734;6.544;2023-02-08T02:55:21;46.05;;;34.67;;
60038;SDS011;45916;52.734;6.544;2023-02-08T02:57:48;42.50;;;35.60;;
60038;SDS011;45916;52.734;6.544;2023-02-08T03:00:18;43.15;;;34.40;;
60038;SDS011;45916;52.734;6.544;2023-02-08T03:02:48;43.92;;;34.78;;
60038;SDS011;45916;52.734;6.544;2023-02-08T03:05:14;48.35;;;36.97;;
60038;SDS011;45916;52.734;6.544;2023-02-08T03:21:53;52.83;;;39.37;;
60038;SDS011;45916;52.734;6.544;2023-02-08T03:25:00;46.67;;;36.55;;
60038;SDS011;45916;52.734;6.544;2023-02-08T03:30:14;48.65;;;37.35;;
60038;SDS011;45916;52.734;6.544;2023-02-08T03:32:56;43.40;;;35.97;;
60038;SDS011;45916;52.734;6.544;2023-02-08T03:35:43;41.13;;;34.88;;
60038;SDS011;45916;52.734;6.544;2023-02-08T03:38:21;46.40;;;34.95;;
60038;SDS011;45916;52.734;6.544;2023-02-08T03:40:55;43.50;;;35.95;;
60038;SDS011;45916;52.734;6.544;2023-02-08T03:45:53;43.40;;;33.60;;
60038;SDS011;45916;52.734;6.544;2023-02-08T03:48:29;43.38;;;34.75;;
60038;SDS011;45916;52.734;6.544;2023-02-08T03:50:57;49.83;;;37.63;;
60038;SDS011;45916;52.734;6.544;2023-02-08T03:53:26;49.13;;;37.13;;
60038;SDS011;45916;52.734;6.544;2023-02-08T03:55:55;53.33;;;36.90;;
60038;SDS011;45916;52.734;6.544;2023-02-08T04:01:43;46.67;;;36.80;;
60038;SDS011;45916;52.734;6.544;2023-02-08T04:04:13;50.80;;;39.97;;
60038;SDS011;45916;52.734;6.544;2023-02-08T04:06:40;51.13;;;39.17;;
60038;SDS011;45916;52.734;6.544;2023-02-08T04:09:06;52.35;;;41.80;;
60038;SDS011;45916;52.734;6.544;2023-02-08T04:11:32;46.25;;;38.83;;
60038;SDS011;45916;52.734;6.544;2023-02-08T04:13:57;47.55;;;38.60;;
60038;SDS011;45916;52.734;6.544;2023-02-08T04:16:23;47.53;;;37.17;;
60038;SDS011;45916;52.734;6.544;2023-02-08T04:18:49;51.00;;;38.08;;
60038;SDS011;45916;52.734;6.544;2023-02-08T04:21:15;44.38;;;36.40;;
60038;SDS011;45916;52.734;6.544;2023-02-08T04:23:41;44.25;;;36.40;;
60038;SDS011;45916;52.734;6.544;2023-02-08T04:26:06;51.35;;;38.33;;
60038;SDS011;45916;52.734;6.544;2023-02-08T04:28:33;51.53;;;39.83;;
60038;SDS011;45916;52.734;6.544;2023-02-08T04:30:59;51.60;;;39.28;;
60038;SDS011;45916;52.734;6.544;2023-02-08T04:33:25;52.63;;;39.03;;
60038;SDS011;45916;52.734;6.544;2023-02-08T04:35:51;50.50;;;42.10;;
60038;SDS011;45916;52.734;6.544;2023-02-08T04:38:16;48.65;;;39.00;;
60038;SDS011;45916;52.734;6.544;2023-02-08T04:40:42;41.25;;;34.85;;
60038;SDS011;45916;52.734;6.544;2023-02-08T04:43:08;48.05;;;37.92;;
60038;SDS011;45916;52.734;6.544;2023-02-08T04:45:33;43.53;;;36.72;;
60038;SDS011;45916;52.734;6.544;2023-02-08T04:47:59;46.60;;;35.03;;
60038;SDS011;45916;52.734;6.544;2023-02-08T04:50:25;42.13;;;37.57;;
60038;SDS011;45916;52.734;6.544;2023-02-08T04:52:52;53.55;;;39.03;;
60038;SDS011;45916;52.734;6.544;2023-02-08T04:55:18;50.42;;;41.00;;
60038;SDS011;45916;52.734;6.544;2023-02-08T04:57:43;55.70;;;42.88;;
60038;SDS011;45916;52.734;6.544;2023-02-08T05:00:09;56.20;;;43.53;;
60038;SDS011;45916;52.734;6.544;2023-02-08T05:02:35;55.25;;;41.25;;
60038;SDS011;45916;52.734;6.544;2023-02-08T05:05:01;48.40;;;40.15;;
60038;SDS011;45916;52.734;6.544;2023-02-08T05:07:27;54.20;;;42.45;;
60038;SDS011;45916;52.734;6.544;2023-02-08T05:09:53;57.27;;;43.40;;
60038;SDS011;45916;52.734;6.544;2023-02-08T05:12:18;56.00;;;43.03;;
60038;SDS011;45916;52.734;6.544;2023-02-08T05:14:44;52.57;;;42.23;;
60038;SDS011;45916;52.734;6.544;2023-02-08T05:17:10;57.55;;;42.28;;
60038;SDS011;45916;52.734;6.544;2023-02-08T05:19:35;62.38;;;44.75;;
60038;SDS011;45916;52.734;6.544;2023-02-08T05:22:01;63.95;;;45.35;;
60038;SDS011;45916;52.734;6.544;2023-02-08T05:24:27;59.60;;;46.15;;
60038;SDS011;45916;52.734;6.544;2023-02-08T05:26:52;56.58;;;44.85;;
60038;SDS011;45916;52.734;6.544;2023-02-08T05:29:18;55.13;;;42.80;;
60038;SDS011;45916;52.734;6.544;2023-02-08T05:31:44;59.42;;;45.10;;
60038;SDS011;45916;52.734;6.544;2023-02-08T05:34:10;58.33;;;45.47;;
60038;SDS011;45916;52.734;6.544;2023-02-08T05:36:36;52.53;;;41.08;;
60038;SDS011;45916;52.734;6.544;2023-02-08T05:39:02;57.03;;;43.42;;
60038;SDS011;45916;52.734;6.544;2023-02-08T05:41:28;54.78;;;42.08;;
60038;SDS011;45916;52.734;6.544;2023-02-08T05:43:53;53.63;;;41.55;;
60038;SDS011;45916;52.734;6.544;2023-02-08T05:46:19;53.00;;;40.75;;
60038;SDS011;45916;52.734;6.544;2023-02-08T05:48:45;55.55;;;41.90;;
60038;SDS011;45916;52.734;6.544;2023-02-08T05:51:10;51.85;;;41.65;;
60038;SDS011;45916;52.734;6.544;2023-02-08T05:53:36;53.55;;;42.67;;
60038;SDS011;45916;52.734;6.544;2023-02-08T05:56:02;53.95;;;41.38;;
60038;SDS011;45916;52.734;6.544;2023-02-08T05:58:28;51.05;;;41.53;;
60038;SDS011;45916;52.734;6.544;2023-02-08T06:00:54;58.65;;;42.22;;
60038;SDS011;45916;52.734;6.544;2023-02-08T06:03:20;52.40;;;41.25;;
60038;SDS011;45916;52.734;6.544;2023-02-08T06:05:46;56.83;;;42.60;;
60038;SDS011;45916;52.734;6.544;2023-02-08T06:08:12;51.85;;;42.38;;
60038;SDS011;45916;52.734;6.544;2023-02-08T06:10:38;57.63;;;44.40;;
60038;SDS011;45916;52.734;6.544;2023-02-08T06:13:04;56.80;;;43.92;;
60038;SDS011;45916;52.734;6.544;2023-02-08T06:15:29;61.28;;;44.67;;
60038;SDS011;45916;52.734;6.544;2023-02-08T06:17:55;57.80;;;43.92;;
60038;SDS011;45916;52.734;6.544;2023-02-08T06:20:21;58.20;;;43.10;;
60038;SDS011;45916;52.734;6.544;2023-02-08T06:22:47;57.53;;;43.20;;
60038;SDS011;45916;52.734;6.544;2023-02-08T06:25:13;59.10;;;44.20;;
60038;SDS011;45916;52.734;6.544;2023-02-08T06:27:39;47.37;;;39.10;;
60038;SDS011;45916;52.734;6.544;2023-02-08T06:30:04;52.27;;;43.00;;
60038;SDS011;45916;52.734;6.544;2023-02-08T06:32:30;55.95;;;41.58;;
60038;SDS011;45916;52.734;6.544;2023-02-08T06:34:56;50.60;;;40.70;;
60038;SDS011;45916;52.734;6.544;2023-02-08T06:37:22;56.13;;;42.30;;
60038;SDS011;45916;52.734;6.544;2023-02-08T06:39:48;55.67;;;41.73;;
60038;SDS011;45916;52.734;6.544;2023-02-08T06:42:13;57.30;;;41.23;;
60038;SDS011;45916;52.734;6.544;2023-02-08T06:44:39;61.30;;;41.53;;
60038;SDS011;45916;52.734;6.544;2023-02-08T06:47:05;62.65;;;44.53;;
60038;SDS011;45916;52.734;6.544;2023-02-08T06:49:30;65.85;;;45.85;;
60038;SDS011;45916;52.734;6.544;2023-02-08T06:51:56;63.30;;;45.22;;
60038;SDS011;45916;52.734;6.544;2023-02-08T06:54:22;63.63;;;45.25;;
60038;SDS011;45916;52.734;6.544;2023-02-08T06:56:47;58.38;;;44.17;;
60038;SDS011;45916;52.734;6.544;2023-02-08T06:59:13;57.63;;;43.90;;
60038;SDS011;45916;52.734;6.544;2023-02-08T07:01:39;57.22;;;43.00;;
60038;SDS011;45916;52.734;6.544;2023-02-08T07:04:04;54.83;;;43.88;;
60038;SDS011;45916;52.734;6.544;2023-02-08T07:06:30;53.35;;;41.47;;
60038;SDS011;45916;52.734;6.544;2023-02-08T07:08:56;55.05;;;42.00;;
60038;SDS011;45916;52.734;6.544;2023-02-08T07:11:22;54.30;;;43.00;;
60038;SDS011;45916;52.734;6.544;2023-02-08T07:13:48;55.30;;;41.25;;
60038;SDS011;45916;52.734;6.544;2023-02-08T07:16:15;50.78;;;41.08;;
60038;SDS011;45916;52.734;6.544;2023-02-08T07:18:42;58.20;;;43.80;;
60038;SDS011;45916;52.734;6.544;2023-02-08T07:21:08;61.53;;;45.03;;
60038;SDS011;45916;52.734;6.544;2023-02-08T07:23:36;55.37;;;42.50;;
60038;SDS011;45916;52.734;6.544;2023-02-08T07:26:04;55.13;;;42.63;;
60038;SDS011;45916;52.734;6.544;2023-02-08T07:28:34;55.67;;;44.03;;
60038;SDS011;45916;52.734;6.544;2023-02-08T07:31:07;60.60;;;44.65;;
60038;SDS011;45916;52.734;6.544;2023-02-08T07:33:35;56.15;;;43.47;;
60038;SDS011;45916;52.734;6.544;2023-02-08T07:36:01;57.15;;;42.00;;
60038;SDS011;45916;52.734;6.544;2023-02-08T07:38:29;56.65;;;41.88;;
60038;SDS011;45916;52.734;6.544;2023-02-08T07:40:59;59.97;;;43.00;;
60038;SDS011;45916;52.734;6.544;2023-02-08T07:43:26;62.05;;;45.42;;
60038;SDS011;45916;52.734;6.544;2023-02-08T07:45:52;68.88;;;49.78;;
60038;SDS011;45916;52.734;6.544;2023-02-08T07:48:17;313.05;;;111.38;;
60038;SDS011;45916;52.734;6.544;2023-02-08T07:50:43;93.18;;;53.58;;
60038;SDS011;45916;52.734;6.544;2023-02-08T07:53:09;85.72;;;53.35;;
60038;SDS011;45916;52.734;6.544;2023-02-08T07:55:34;70.13;;;47.40;;
60038;SDS011;45916;52.734;6.544;2023-02-08T07:58:00;56.20;;;41.00;;
60038;SDS011;45916;52.734;6.544;2023-02-08T08:00:25;47.45;;;38.88;;
60038;SDS011;45916;52.734;6.544;2023-02-08T08:02:52;41.97;;;33.88;;
60038;SDS011;45916;52.734;6.544;2023-02-08T08:05:18;35.30;;;29.23;;
60038;SDS011;45916;52.734;6.544;2023-02-08T08:07:43;33.70;;;28.42;;
60038;SDS011;45916;52.734;6.544;2023-02-08T08:10:09;35.47;;;28.10;;
60038;SDS011;45916;52.734;6.544;2023-02-08T08:12:35;29.08;;;25.98;;
60038;SDS011;45916;52.734;6.544;2023-02-08T08:15:00;28.80;;;25.75;;
60038;SDS011;45916;52.734;6.544;2023-02-08T08:17:26;28.58;;;25.48;;
60038;SDS011;45916;52.734;6.544;2023-02-08T08:19:51;28.80;;;25.30;;
60038;SDS011;45916;52.734;6.544;2023-02-08T08:22:17;29.85;;;25.73;;
60038;SDS011;45916;52.734;6.544;2023-02-08T08:24:43;27.95;;;25.20;;
60038;SDS011;45916;52.734;6.544;2023-02-08T08:27:08;33.17;;;28.98;;
60038;SDS011;45916;52.734;6.544;2023-02-08T08:29:35;30.55;;;27.27;;
60038;SDS011;45916;52.734;6.544;2023-02-08T08:32:01;32.35;;;28.88;;
60038;SDS011;45916;52.734;6.544;2023-02-08T08:34:28;34.90;;;27.85;;
60038;SDS011;45916;52.734;6.544;2023-02-08T08:36:58;31.65;;;28.33;;
60038;SDS011;45916;52.734;6.544;2023-02-08T08:39:25;32.78;;;29.42;;
60038;SDS011;45916;52.734;6.544;2023-02-08T08:41:51;29.95;;;26.80;;
60038;SDS011;45916;52.734;6.544;2023-02-08T08:44:19;30.95;;;27.80;;
60038;SDS011;45916;52.734;6.544;2023-02-08T08:46:44;28.35;;;25.55;;
60038;SDS011;45916;52.734;6.544;2023-02-08T08:49:10;27.95;;;24.80;;
60038;SDS011;45916;52.734;6.544;2023-02-08T08:51:37;26.15;;;23.48;;
60038;SDS011;45916;52.734;6.544;2023-02-08T08:54:03;26.15;;;23.42;;
60038;SDS011;45916;52.734;6.544;2023-02-08T08:56:30;26.13;;;23.33;;
60038;SDS011;45916;52.734;6.544;2023-02-08T08:58:56;25.85;;;23.30;;
60038;SDS011;45916;52.734;6.544;2023-02-08T09:01:22;26.05;;;22.90;;
60038;SDS011;45916;52.734;6.544;2023-02-08T09:03:48;25.80;;;23.08;;
60038;SDS011;45916;52.734;6.544;2023-02-08T09:06:14;24.05;;;21.75;;
60038;SDS011;45916;52.734;6.544;2023-02-08T09:08:40;22.88;;;20.55;;
60038;SDS011;45916;52.734;6.544;2023-02-08T09:11:07;22.90;;;20.75;;
60038;SDS011;45916;52.734;6.544;2023-02-08T09:13:34;24.05;;;21.75;;
60038;SDS011;45916;52.734;6.544;2023-02-08T09:16:07;22.98;;;20.77;;
60038;SDS011;45916;52.734;6.544;2023-02-08T09:18:34;23.85;;;21.48;;
60038;SDS011;45916;52.734;6.544;2023-02-08T09:21:04;24.33;;;21.95;;
60038;SDS011;45916;52.734;6.544;2023-02-08T09:23:37;24.83;;;22.50;;
60038;SDS011;45916;52.734;6.544;2023-02-08T09:26:03;22.10;;;20.00;;
60038;SDS011;45916;52.734;6.544;2023-02-08T09:28:33;24.85;;;20.13;;
60038;SDS011;45916;52.734;6.544;2023-02-08T09:31:05;21.77;;;19.58;;
60038;SDS011;45916;52.734;6.544;2023-02-08T09:33:35;22.25;;;20.05;;
60038;SDS011;45916;52.734;6.544;2023-02-08T09:36:01;23.70;;;21.42;;
60038;SDS011;45916;52.734;6.544;2023-02-08T09:38:27;22.17;;;19.73;;
60038;SDS011;45916;52.734;6.544;2023-02-08T09:46:10;21.52;;;19.42;;
60038;SDS011;45916;52.734;6.544;2023-02-08T09:48:41;22.83;;;20.65;;
60038;SDS011;45916;52.734;6.544;2023-02-08T09:54:02;21.35;;;19.15;;
60038;SDS011;45916;52.734;6.544;2023-02-08T09:56:35;22.30;;;20.08;;
60038;SDS011;45916;52.734;6.544;2023-02-08T09:59:05;21.40;;;19.02;;
60038;SDS011;45916;52.734;6.544;2023-02-08T10:01:36;19.63;;;17.65;;
60038;SDS011;45916;52.734;6.544;2023-02-08T10:04:11;21.90;;;19.73;;
60038;SDS011;45916;52.734;6.544;2023-02-08T10:06:38;21.35;;;19.42;;
60038;SDS011;45916;52.734;6.544;2023-02-08T10:09:04;21.00;;;18.90;;
60038;SDS011;45916;52.734;6.544;2023-02-08T10:17:41;21.38;;;19.35;;
60038;SDS011;45916;52.734;6.544;2023-02-08T10:33:42;14.57;;;13.05;;
60038;SDS011;45916;52.734;6.544;2023-02-08T10:36:26;17.08;;;15.30;;
60038;SDS011;45916;52.734;6.544;2023-02-08T10:38:55;14.80;;;13.02;;
60038;SDS011;45916;52.734;6.544;2023-02-08T10:41:33;15.93;;;13.15;;
60038;SDS011;45916;52.734;6.544;2023-02-08T10:47:11;14.77;;;13.38;;
60038;SDS011;45916;52.734;6.544;2023-02-08T10:52:49;16.13;;;14.25;;
60038;SDS011;45916;52.734;6.544;2023-02-08T10:55:18;16.48;;;14.75;;
60038;SDS011;45916;52.734;6.544;2023-02-08T10:57:45;15.10;;;13.60;;
60038;SDS011;45916;52.734;6.544;2023-02-08T11:00:21;15.05;;;13.55;;
60038;SDS011;45916;52.734;6.544;2023-02-08T11:02:52;13.40;;;12.10;;
60038;SDS011;45916;52.734;6.544;2023-02-08T11:05:20;15.88;;;13.20;;
60038;SDS011;45916;52.734;6.544;2023-02-08T11:08:07;16.30;;;14.60;;
60038;SDS011;45916;52.734;6.544;2023-02-08T11:10:36;16.13;;;14.43;;
60038;SDS011;45916;52.734;6.544;2023-02-08T11:13:04;15.63;;;13.98;;
60038;SDS011;45916;52.734;6.544;2023-02-08T11:18:16;16.75;;;14.98;;
60038;SDS011;45916;52.734;6.544;2023-02-08T11:21:01;15.68;;;13.85;;
60038;SDS011;45916;52.734;6.544;2023-02-08T11:26:18;16.08;;;14.00;;
60038;SDS011;45916;52.734;6.544;2023-02-08T11:28:42;17.17;;;13.93;;
60038;SDS011;45916;52.734;6.544;2023-02-08T11:31:18;13.70;;;11.77;;
60038;SDS011;45916;52.734;6.544;2023-02-08T11:34:06;15.73;;;12.98;;
60038;SDS011;45916;52.734;6.544;2023-02-08T11:36:36;15.68;;;14.02;;
60038;SDS011;45916;52.734;6.544;2023-02-08T11:39:30;16.13;;;13.00;;
60038;SDS011;45916;52.734;6.544;2023-02-08T11:42:12;16.02;;;13.07;;
60038;SDS011;45916;52.734;6.544;2023-02-08T11:44:53;14.85;;;13.02;;
60038;SDS011;45916;52.734;6.544;2023-02-08T11:47:30;14.05;;;12.65;;
60038;SDS011;45916;52.734;6.544;2023-02-08T11:49:59;15.18;;;13.57;;
60038;SDS011;45916;52.734;6.544;2023-02-08T11:52:31;15.10;;;11.88;;
60038;SDS011;45916;52.734;6.544;2023-02-08T11:58:02;16.90;;;14.07;;
60038;SDS011;45916;52.734;6.544;2023-02-08T12:00:41;17.42;;;14.65;;
60038;SDS011;45916;52.734;6.544;2023-02-08T12:03:29;17.08;;;14.40;;
60038;SDS011;45916;52.734;6.544;2023-02-08T12:08:38;15.68;;;13.07;;
60038;SDS011;45916;52.734;6.544;2023-02-08T12:14:20;13.63;;;11.77;;
60038;SDS011;45916;52.734;6.544;2023-02-08T12:17:19;14.40;;;11.00;;
60038;SDS011;45916;52.734;6.544;2023-02-08T12:28:56;12.15;;;9.15;;
60038;SDS011;45916;52.734;6.544;2023-02-08T12:37:49;12.45;;;9.68;;
60038;SDS011;45916;52.734;6.544;2023-02-08T12:55:26;11.00;;;9.10;;
60038;SDS011;45916;52.734;6.544;2023-02-08T13:00:55;11.48;;;9.25;;
60038;SDS011;45916;52.734;6.544;2023-02-08T13:06:11;11.48;;;8.90;;
60038;SDS011;45916;52.734;6.544;2023-02-08T13:08:46;12.57;;;8.52;;
60038;SDS011;45916;52.734;6.544;2023-02-08T13:11:17;10.00;;;8.65;;
60038;SDS011;45916;52.734;6.544;2023-02-08T13:14:03;11.30;;;8.70;;
60038;SDS011;45916;52.734;6.544;2023-02-08T13:16:37;9.35;;;7.88;;
60038;SDS011;45916;52.734;6.544;2023-02-08T13:21:47;8.30;;;7.00;;
60038;SDS011;45916;52.734;6.544;2023-02-08T13:27:01;10.15;;;6.82;;
60038;SDS011;45916;52.734;6.544;2023-02-08T13:29:31;7.75;;;6.15;;
60038;SDS011;45916;52.734;6.544;2023-02-08T13:31:59;9.00;;;5.85;;
60038;SDS011;45916;52.734;6.544;2023-02-08T13:34:37;8.10;;;5.60;;
60038;SDS011;45916;52.734;6.544;2023-02-08T13:37:22;8.55;;;5.75;;
60038;SDS011;45916;52.734;6.544;2023-02-08T13:39:50;7.93;;;5.25;;
60038;SDS011;45916;52.734;6.544;2023-02-08T13:42:47;8.27;;;5.47;;
60038;SDS011;45916;52.734;6.544;2023-02-08T13:45:22;8.10;;;5.45;;
60038;SDS011;45916;52.734;6.544;2023-02-08T13:48:10;6.60;;;4.57;;
60038;SDS011;45916;52.734;6.544;2023-02-08T13:53:09;7.60;;;4.43;;
60038;SDS011;45916;52.734;6.544;2023-02-08T14:11:02;6.30;;;4.22;;
60038;SDS011;45916;52.734;6.544;2023-02-08T14:13:59;7.15;;;4.55;;
60038;SDS011;45916;52.734;6.544;2023-02-08T14:18:57;7.38;;;4.30;;
60038;SDS011;45916;52.734;6.544;2023-02-08T14:21:35;9.15;;;5.85;;
60038;SDS011;45916;52.734;6.544;2023-02-08T14:24:07;9.27;;;5.38;;
60038;SDS011;45916;52.734;6.544;2023-02-08T14:27:08;7.43;;;4.80;;
60038;SDS011;45916;52.734;6.544;2023-02-08T14:29:41;7.88;;;5.30;;
60038;SDS011;45916;52.734;6.544;2023-02-08T14:32:08;9.63;;;4.70;;
60038;SDS011;45916;52.734;6.544;2023-02-08T14:34:45;7.50;;;5.38;;
60038;SDS011;45916;52.734;6.544;2023-02-08T14:39:43;7.00;;;4.72;;
60038;SDS011;45916;52.734;6.544;2023-02-08T14:42:09;8.02;;;4.63;;
60038;SDS011;45916;52.734;6.544;2023-02-08T14:47:04;8.20;;;5.57;;
60038;SDS011;45916;52.734;6.544;2023-02-08T14:49:38;6.90;;;4.68;;
60038;SDS011;45916;52.734;6.544;2023-02-08T14:52:13;7.90;;;4.57;;
60038;SDS011;45916;52.734;6.544;2023-02-08T14:57:34;7.78;;;4.20;;
60038;SDS011;45916;52.734;6.544;2023-02-08T15:00:03;8.15;;;4.93;;
60038;SDS011;45916;52.734;6.544;2023-02-08T15:02:32;7.32;;;4.55;;
60038;SDS011;45916;52.734;6.544;2023-02-08T15:05:00;7.40;;;4.63;;
60038;SDS011;45916;52.734;6.544;2023-02-08T15:10:16;8.02;;;5.10;;
60038;SDS011;45916;52.734;6.544;2023-02-08T15:12:44;6.88;;;4.82;;
60038;SDS011;45916;52.734;6.544;2023-02-08T15:15:20;8.07;;;5.10;;
60038;SDS011;45916;52.734;6.544;2023-02-08T15:17:53;7.47;;;4.35;;
60038;SDS011;45916;52.734;6.544;2023-02-08T15:20:27;6.70;;;4.50;;
60038;SDS011;45916;52.734;6.544;2023-02-08T15:25:26;7.72;;;4.30;;
60038;SDS011;45916;52.734;6.544;2023-02-08T15:27:58;7.35;;;4.72;;
60038;SDS011;45916;52.734;6.544;2023-02-08T15:30:39;8.02;;;4.55;;
60038;SDS011;45916;52.734;6.544;2023-02-08T15:33:09;8.25;;;5.13;;
60038;SDS011;45916;52.734;6.544;2023-02-08T15:35:39;6.88;;;5.10;;
60038;SDS011;45916;52.734;6.544;2023-02-08T15:38:16;7.47;;;5.30;;
60038;SDS011;45916;52.734;6.544;2023-02-08T15:43:38;8.90;;;5.63;;
60038;SDS011;45916;52.734;6.544;2023-02-08T15:46:06;8.75;;;5.45;;
60038;SDS011;45916;52.734;6.544;2023-02-08T15:48:47;7.57;;;4.68;;
60038;SDS011;45916;52.734;6.544;2023-02-08T15:51:14;10.70;;;6.75;;
60038;SDS011;45916;52.734;6.544;2023-02-08T15:53:42;8.68;;;5.75;;
60038;SDS011;45916;52.734;6.544;2023-02-08T15:56:14;8.43;;;4.97;;
60038;SDS011;45916;52.734;6.544;2023-02-08T15:58:44;7.07;;;4.78;;
60038;SDS011;45916;52.734;6.544;2023-02-08T16:01:16;7.63;;;5.38;;
60038;SDS011;45916;52.734;6.544;2023-02-08T16:03:47;9.25;;;5.95;;
60038;SDS011;45916;52.734;6.544;2023-02-08T16:06:18;8.43;;;5.28;;
60038;SDS011;45916;52.734;6.544;2023-02-08T16:08:52;9.65;;;6.05;;
60038;SDS011;45916;52.734;6.544;2023-02-08T16:11:26;7.47;;;4.22;;
60038;SDS011;45916;52.734;6.544;2023-02-08T16:13:56;7.68;;;4.72;;
60038;SDS011;45916;52.734;6.544;2023-02-08T16:19:02;8.77;;;4.38;;
60038;SDS011;45916;52.734;6.544;2023-02-08T16:21:33;11.82;;;7.15;;
60038;SDS011;45916;52.734;6.544;2023-02-08T16:29:25;12.43;;;8.23;;
60038;SDS011;45916;52.734;6.544;2023-02-08T16:31:56;16.85;;;11.80;;
60038;SDS011;45916;52.734;6.544;2023-02-08T16:34:31;13.77;;;10.30;;
60038;SDS011;45916;52.734;6.544;2023-02-08T16:36:59;14.43;;;11.05;;
60038;SDS011;45916;52.734;6.544;2023-02-08T16:39:36;21.10;;;16.15;;
60038;SDS011;45916;52.734;6.544;2023-02-08T16:42:04;20.93;;;15.27;;
60038;SDS011;45916;52.734;6.544;2023-02-08T16:47:52;23.73;;;15.38;;
60038;SDS011;45916;52.734;6.544;2023-02-08T16:50:23;11.98;;;7.85;;
60038;SDS011;45916;52.734;6.544;2023-02-08T16:53:09;9.70;;;7.03;;
60038;SDS011;45916;52.734;6.544;2023-02-08T16:55:36;13.85;;;12.30;;
60038;SDS011;45916;52.734;6.544;2023-02-08T16:58:02;11.27;;;9.10;;
60038;SDS011;45916;52.734;6.544;2023-02-08T17:00:31;8.82;;;7.45;;
60038;SDS011;45916;52.734;6.544;2023-02-08T17:02:58;8.60;;;5.90;;
60038;SDS011;45916;52.734;6.544;2023-02-08T17:05:26;10.18;;;7.25;;
60038;SDS011;45916;52.734;6.544;2023-02-08T17:07:54;9.18;;;5.68;;
60038;SDS011;45916;52.734;6.544;2023-02-08T17:10:30;9.60;;;5.28;;
60038;SDS011;45916;52.734;6.544;2023-02-08T17:12:57;13.23;;;6.20;;
60038;SDS011;45916;52.734;6.544;2023-02-08T17:15:24;12.67;;;6.50;;
60038;SDS011;45916;52.734;6.544;2023-02-08T17:17:50;11.48;;;7.20;;
60038;SDS011;45916;52.734;6.544;2023-02-08T17:20:21;11.32;;;7.32;;
60038;SDS011;45916;52.734;6.544;2023-02-08T17:22:48;11.75;;;6.72;;
60038;SDS011;45916;52.734;6.544;2023-02-08T17:25:15;9.85;;;6.80;;
60038;SDS011;45916;52.734;6.544;2023-02-08T17:27:49;8.77;;;6.82;;
60038;SDS011;45916;52.734;6.544;2023-02-08T17:30:26;9.57;;;6.28;;
60038;SDS011;45916;52.734;6.544;2023-02-08T17:33:03;8.10;;;5.43;;
60038;SDS011;45916;52.734;6.544;2023-02-08T17:35:30;9.07;;;6.22;;
60038;SDS011;45916;52.734;6.544;2023-02-08T17:37:57;8.52;;;6.60;;
60038;SDS011;45916;52.734;6.544;2023-02-08T17:40:24;8.90;;;5.93;;
60038;SDS011;45916;52.734;6.544;2023-02-08T17:42:53;9.27;;;7.00;;
60038;SDS011;45916;52.734;6.544;2023-02-08T17:45:19;8.93;;;6.90;;